Time;durP1;ratioP1;P1;durP2;ratioP2;P2;SDS_P1;SDS_P2;PMS_P1;PMS_P2;Temp;Humidity;BMP_temperature;BMP_pressure;BME280_temperature;BME280_humidity;BME280_pressure;Samples;Min_cycle;Max_cycle;Signal;HPM_P1;HPM_P2
2021/07/01 00:00:47;;;;;;;0.88;0.10;;;14.50;99.90;;;;;;5009669;28;20089;-71
2021/07/01 00:03:12;;;;;;;0.57;0.10;;;14.40;99.90;;;;;;5020731;28;20545;-71
2021/07/01 00:05:38;;;;;;;2.33;0.20;;;14.30;99.90;;;;;;5025564;28;20088;-71
2021/07/01 00:08:04;;;;;;;0.20;0.13;;;14.20;99.90;;;;;;5029544;28;20082;-71
2021/07/01 00:10:30;;;;;;;0.25;0.05;;;14.30;99.90;;;;;;5011060;28;20086;-71
2021/07/01 00:12:57;;;;;;;0.55;0.20;;;14.30;99.90;;;;;;5027481;28;20148;-71
2021/07/01 00:15:26;;;;;;;1.52;0.20;;;14.10;99.90;;;;;;5027184;28;20156;-71
2021/07/01 00:17:53;;;;;;;0.30;0.10;;;14.20;99.90;;;;;;5029750;28;20086;-71
2021/07/01 00:20:19;;;;;;;0.15;0.10;;;14.10;99.90;;;;;;5025886;28;20151;-71
2021/07/01 00:22:45;;;;;;;0.10;0.00;;;14.10;99.90;;;;;;5007665;28;20090;-71
2021/07/01 00:25:12;;;;;;;0.20;0.00;;;14.00;99.90;;;;;;5028646;28;20092;-71
2021/07/01 00:27:37;;;;;;;0.05;0.05;;;13.90;99.90;;;;;;5027205;28;20074;-71
2021/07/01 00:30:04;;;;;;;0.08;0.00;;;13.90;99.90;;;;;;5007944;28;20144;-71
2021/07/01 00:32:30;;;;;;;0.63;0.10;;;13.90;99.90;;;;;;5025689;28;20101;-71
2021/07/01 00:34:55;;;;;;;0.13;0.03;;;13.90;99.90;;;;;;5029900;28;20086;-71
2021/07/01 00:37:21;;;;;;;1.13;0.10;;;13.90;99.90;;;;;;5010286;28;20173;-71
2021/07/01 00:39:46;;;;;;;0.57;0.10;;;13.90;99.90;;;;;;5028249;28;20569;-71
2021/07/01 00:42:12;;;;;;;0.20;0.10;;;13.90;99.90;;;;;;5067716;23;20113;-72
2021/07/01 00:44:38;;;;;;;0.30;0.10;;;13.90;99.90;;;;;;5026264;28;20074;-72
2021/07/01 00:47:03;;;;;;;0.30;0.10;;;14.00;99.90;;;;;;5007312;28;21185;-71
2021/07/01 00:49:29;;;;;;;3.83;0.10;;;13.80;99.90;;;;;;5028014;28;20136;-71
2021/07/01 00:51:55;;;;;;;1.05;0.10;;;13.90;99.90;;;;;;5026469;28;20086;-71
2021/07/01 00:54:20;;;;;;;0.20;0.10;;;13.80;99.90;;;;;;5027553;28;20086;-72
2021/07/01 00:56:46;;;;;;;0.40;0.20;;;13.70;99.90;;;;;;5024769;28;20073;-71
2021/07/01 00:59:13;;;;;;;0.10;0.10;;;13.80;99.90;;;;;;5027841;28;20078;-71
2021/07/01 01:01:38;;;;;;;0.30;0.13;;;13.70;99.90;;;;;;5023180;28;20733;-71
2021/07/01 01:04:04;;;;;;;0.90;0.10;;;13.70;99.90;;;;;;5012476;28;20078;-71
2021/07/01 01:06:30;;;;;;;0.25;0.10;;;13.70;99.90;;;;;;5023557;28;20074;-71
2021/07/01 01:08:57;;;;;;;2.08;0.10;;;13.80;99.90;;;;;;5027476;28;20074;-71
2021/07/01 01:11:26;;;;;;;0.47;0.10;;;13.70;99.90;;;;;;5026770;28;20120;-71
2021/07/01 01:13:52;;;;;;;0.45;0.20;;;13.70;99.90;;;;;;5026912;28;20074;-71
2021/07/01 01:16:18;;;;;;;1.55;0.17;;;13.70;99.90;;;;;;5028226;28;20078;-71
2021/07/01 01:18:44;;;;;;;0.10;0.10;;;13.70;99.90;;;;;;5026480;28;20115;-71
2021/07/01 01:21:13;;;;;;;1.65;0.10;;;13.70;99.90;;;;;;5025290;28;20101;-71
2021/07/01 01:23:40;;;;;;;0.60;0.20;;;13.60;99.90;;;;;;5015621;28;20105;-71
2021/07/01 01:26:06;;;;;;;0.52;0.10;;;13.60;99.90;;;;;;4997660;28;20082;-71
2021/07/01 01:28:32;;;;;;;1.85;0.28;;;13.60;99.90;;;;;;5028422;28;20648;-71
2021/07/01 01:30:58;;;;;;;0.13;0.03;;;13.60;99.90;;;;;;5026664;28;20092;-71
2021/07/01 01:33:25;;;;;;;2.60;0.10;;;13.50;99.90;;;;;;5028140;28;20074;-71
2021/07/01 01:35:51;;;;;;;0.30;0.10;;;13.60;99.90;;;;;;5027815;28;20073;-71
2021/07/01 01:38:17;;;;;;;0.63;0.20;;;13.50;99.90;;;;;;5027036;28;20128;-71
2021/07/01 01:40:45;;;;;;;0.45;0.22;;;13.60;99.90;;;;;;5027637;28;20131;-71
2021/07/01 01:43:13;;;;;;;0.30;0.22;;;13.50;99.90;;;;;;5002510;28;20457;-71
2021/07/01 01:45:40;;;;;;;0.10;0.10;;;13.60;99.90;;;;;;5025780;28;20591;-71
2021/07/01 01:48:06;;;;;;;2.13;0.38;;;13.40;99.90;;;;;;5028988;28;20082;-72
2021/07/01 01:50:32;;;;;;;1.00;0.30;;;13.50;99.90;;;;;;5026156;28;20082;-71
2021/07/01 01:52:57;;;;;;;1.10;0.22;;;13.60;99.90;;;;;;5025049;28;20098;-71
2021/07/01 01:55:23;;;;;;;0.40;0.30;;;13.50;99.90;;;;;;5026010;28;20465;-72
2021/07/01 01:57:50;;;;;;;1.65;0.32;;;13.50;99.90;;;;;;5025854;28;21034;-72
2021/07/01 02:00:19;;;;;;;0.80;0.35;;;13.50;99.90;;;;;;5028181;28;20098;-71
2021/07/01 02:02:45;;;;;;;1.85;0.15;;;13.50;99.90;;;;;;5021716;28;20121;-71
2021/07/01 02:05:11;;;;;;;0.28;0.20;;;13.50;99.90;;;;;;5023344;28;20194;-71
2021/07/01 02:07:37;;;;;;;0.43;0.17;;;13.50;99.90;;;;;;5022727;28;20537;-71
2021/07/01 02:10:05;;;;;;;0.90;0.40;;;13.50;99.90;;;;;;5027084;28;20197;-71
2021/07/01 02:12:31;;;;;;;2.42;0.22;;;13.60;99.90;;;;;;5021847;28;20240;-71
2021/07/01 02:14:58;;;;;;;2.60;0.40;;;13.60;99.90;;;;;;5025500;28;20078;-71
2021/07/01 02:17:24;;;;;;;1.33;0.20;;;13.60;99.90;;;;;;5024293;28;20173;-71
2021/07/01 02:19:49;;;;;;;0.40;0.20;;;13.50;99.90;;;;;;5025943;28;20197;-71
2021/07/01 02:22:15;;;;;;;0.95;0.40;;;13.60;99.90;;;;;;5024452;28;20558;-71
2021/07/01 02:24:41;;;;;;;0.80;0.45;;;13.50;99.90;;;;;;5026525;28;20109;-71
2021/07/01 02:27:08;;;;;;;0.63;0.30;;;13.60;99.90;;;;;;5024650;28;20070;-71
2021/07/01 02:29:34;;;;;;;0.68;0.50;;;13.50;99.90;;;;;;5027935;28;20529;-70
2021/07/01 02:31:59;;;;;;;0.40;0.20;;;13.50;99.90;;;;;;5007027;28;20097;-71
2021/07/01 02:34:25;;;;;;;0.80;0.40;;;13.50;99.90;;;;;;5026170;28;20671;-71
2021/07/01 02:36:51;;;;;;;0.30;0.30;;;13.50;99.90;;;;;;5025343;28;20082;-71
2021/07/01 02:39:16;;;;;;;0.68;0.47;;;13.60;99.90;;;;;;5023961;28;20082;-71
2021/07/01 02:41:42;;;;;;;0.50;0.30;;;13.50;99.90;;;;;;5023617;28;20155;-71
2021/07/01 02:44:07;;;;;;;0.30;0.30;;;13.60;99.90;;;;;;5026322;28;20572;-71
2021/07/01 02:46:33;;;;;;;0.30;0.20;;;13.70;99.90;;;;;;5024941;28;20105;-71
2021/07/01 02:48:59;;;;;;;0.50;0.40;;;13.60;99.90;;;;;;5024543;28;20088;-71
2021/07/01 02:51:24;;;;;;;0.57;0.30;;;13.70;99.90;;;;;;5025133;28;20101;-71
2021/07/01 02:53:50;;;;;;;1.25;0.38;;;13.60;99.90;;;;;;5024653;28;20592;-71
2021/07/01 02:56:16;;;;;;;1.00;0.30;;;13.60;99.90;;;;;;5025199;28;20487;-71
2021/07/01 02:58:41;;;;;;;1.50;0.30;;;13.50;99.90;;;;;;5026212;28;20074;-71
2021/07/01 03:01:07;;;;;;;1.70;0.30;;;13.60;99.90;;;;;;5025749;28;20228;-71
2021/07/01 03:03:32;;;;;;;0.60;0.30;;;13.50;99.90;;;;;;5007001;28;20478;-71
2021/07/01 03:05:58;;;;;;;0.80;0.32;;;13.50;99.90;;;;;;5007882;28;20084;-71
2021/07/01 03:08:23;;;;;;;1.63;0.40;;;13.50;99.90;;;;;;5019916;28;20136;-71
2021/07/01 03:10:49;;;;;;;0.38;0.38;;;13.60;99.90;;;;;;5026255;28;20150;-71
2021/07/01 03:13:15;;;;;;;0.63;0.30;;;13.50;99.90;;;;;;5025345;28;20082;-71
2021/07/01 03:15:41;;;;;;;1.05;0.30;;;13.60;99.90;;;;;;5024126;28;20074;-71
2021/07/01 03:18:07;;;;;;;0.30;0.30;;;13.60;99.90;;;;;;5026584;28;20153;-71
2021/07/01 03:20:32;;;;;;;0.65;0.30;;;13.60;99.90;;;;;;5029304;28;20169;-71
2021/07/01 03:22:58;;;;;;;1.13;0.50;;;13.60;99.90;;;;;;5028042;28;20104;-71
2021/07/01 03:25:24;;;;;;;0.82;0.43;;;13.50;99.90;;;;;;5031678;28;20066;-71
2021/07/01 03:27:49;;;;;;;0.77;0.30;;;13.60;99.90;;;;;;5032136;28;20070;-71
2021/07/01 03:30:15;;;;;;;0.20;0.10;;;13.50;99.90;;;;;;5032530;28;20123;-71
2021/07/01 03:32:41;;;;;;;0.52;0.30;;;13.60;99.90;;;;;;5014250;28;20090;-71
2021/07/01 03:35:07;;;;;;;0.57;0.30;;;13.60;99.90;;;;;;5032170;28;20074;-71
2021/07/01 03:37:32;;;;;;;0.40;0.30;;;13.60;99.90;;;;;;5031222;28;20603;-71
2021/07/01 03:39:58;;;;;;;1.17;0.22;;;13.60;99.90;;;;;;5031644;28;20089;-70
2021/07/01 03:42:25;;;;;;;0.30;0.30;;;13.60;99.90;;;;;;5030865;28;20129;-71
2021/07/01 03:44:51;;;;;;;0.55;0.20;;;13.60;99.90;;;;;;5032156;28;20062;-71
2021/07/01 03:47:16;;;;;;;1.85;0.40;;;13.60;99.90;;;;;;5013694;28;20116;-71
2021/07/01 03:49:42;;;;;;;0.30;0.30;;;13.60;99.90;;;;;;5031491;28;20168;-71
2021/07/01 03:52:08;;;;;;;1.38;0.35;;;13.60;99.90;;;;;;5031824;28;20089;-71
2021/07/01 03:54:46;;;;;;;0.70;0.43;;;13.70;99.90;;;;;;5012392;28;20143;-71
2021/07/01 03:57:11;;;;;;;0.70;0.43;;;13.70;99.90;;;;;;5011304;28;20547;-71
2021/07/01 03:59:37;;;;;;;0.60;0.43;;;13.70;99.90;;;;;;5023059;28;20096;-71
2021/07/01 04:02:03;;;;;;;1.50;0.40;;;13.80;99.90;;;;;;5032833;28;20078;-71
2021/07/01 04:04:28;;;;;;;0.60;0.35;;;13.70;99.90;;;;;;5022619;28;20415;-71
2021/07/01 04:06:54;;;;;;;2.83;0.40;;;13.60;99.90;;;;;;5012439;28;20132;-71
2021/07/01 04:09:19;;;;;;;0.40;0.30;;;13.60;99.90;;;;;;5012765;28;20070;-71
2021/07/01 04:11:45;;;;;;;0.50;0.32;;;13.60;99.90;;;;;;5012076;28;20087;-71
2021/07/01 04:14:12;;;;;;;0.60;0.40;;;13.60;99.90;;;;;;5011374;28;20077;-71
2021/07/01 04:16:38;;;;;;;0.60;0.35;;;13.70;99.90;;;;;;5011106;28;20189;-71
2021/07/01 04:19:04;;;;;;;0.73;0.40;;;13.60;99.90;;;;;;5011935;28;20074;-71
2021/07/01 04:21:29;;;;;;;1.70;0.50;;;13.70;99.90;;;;;;5013759;28;20165;-73
2021/07/01 04:23:57;;;;;;;1.95;0.70;;;13.60;99.90;;;;;;5031745;28;20070;-74
2021/07/01 04:26:23;;;;;;;0.52;0.40;;;13.70;99.90;;;;;;5031256;28;20531;-70
2021/07/01 04:28:49;;;;;;;0.80;0.50;;;13.70;99.90;;;;;;5032382;28;20066;-70
2021/07/01 04:31:16;;;;;;;1.00;0.60;;;13.70;99.90;;;;;;5031425;28;20484;-71
2021/07/01 04:33:42;;;;;;;0.63;0.52;;;13.80;99.90;;;;;;5027388;28;20070;-71
2021/07/01 04:36:07;;;;;;;0.82;0.63;;;13.80;99.90;;;;;;5030774;28;20620;-72
2021/07/01 04:38:33;;;;;;;0.73;0.50;;;13.90;99.90;;;;;;5031190;28;20157;-70
2021/07/01 04:40:58;;;;;;;1.00;0.57;;;13.80;99.90;;;;;;5032018;28;20104;-70
2021/07/01 04:43:24;;;;;;;0.68;0.55;;;13.90;99.90;;;;;;5030670;28;20093;-70
2021/07/01 04:45:50;;;;;;;1.50;0.60;;;13.80;99.90;;;;;;5031178;28;20070;-73
2021/07/01 04:48:15;;;;;;;1.15;0.73;;;13.80;99.90;;;;;;5031504;28;20433;-70
2021/07/01 04:50:41;;;;;;;1.98;0.50;;;13.80;99.90;;;;;;5031350;28;20070;-70
2021/07/01 04:53:06;;;;;;;0.90;0.55;;;13.80;99.90;;;;;;5013083;28;20102;-70
2021/07/01 04:55:32;;;;;;;1.58;0.70;;;13.80;99.90;;;;;;5011124;28;20093;-71
2021/07/01 04:57:57;;;;;;;0.80;0.65;;;13.90;99.90;;;;;;5011576;28;20109;-70
2021/07/01 05:00:23;;;;;;;0.85;0.80;;;13.90;99.90;;;;;;5028998;28;20132;-70
2021/07/01 05:02:48;;;;;;;0.80;0.63;;;14.00;99.90;;;;;;5024903;28;20549;-71
2021/07/01 05:05:14;;;;;;;1.13;0.80;;;13.90;99.90;;;;;;5016688;28;20089;-72
2021/07/01 05:07:44;;;;;;;1.42;0.82;;;14.00;99.90;;;;;;5022419;28;20145;-71
2021/07/01 05:10:11;;;;;;;1.90;0.60;;;13.90;99.90;;;;;;5024757;28;20085;-71
2021/07/01 05:12:36;;;;;;;1.60;0.73;;;13.90;99.90;;;;;;5010705;28;20108;-74
2021/07/01 05:15:03;;;;;;;0.82;0.60;;;13.90;99.90;;;;;;5029293;28;20086;-71
2021/07/01 05:17:29;;;;;;;1.27;0.73;;;13.90;99.90;;;;;;5026557;28;20599;-70
2021/07/01 05:19:54;;;;;;;1.55;0.60;;;14.00;99.90;;;;;;5026943;28;20096;-71
2021/07/01 05:22:20;;;;;;;0.95;0.85;;;13.90;99.90;;;;;;5023242;28;20101;-72
2021/07/01 05:24:45;;;;;;;5.55;1.20;;;13.90;99.90;;;;;;5021134;28;20102;-70
2021/07/01 05:27:11;;;;;;;1.20;0.95;;;14.00;99.90;;;;;;5028625;28;20080;-74
2021/07/01 05:29:37;;;;;;;1.20;0.70;;;14.00;99.90;;;;;;5010713;28;20073;-71
2021/07/01 05:32:02;;;;;;;1.92;0.85;;;13.90;99.90;;;;;;5027147;28;20090;-71
2021/07/01 05:34:28;;;;;;;1.50;1.02;;;13.90;99.90;;;;;;5028327;28;20111;-71
2021/07/01 05:36:53;;;;;;;1.35;0.80;;;14.00;99.90;;;;;;5009653;28;20077;-71
2021/07/01 05:39:19;;;;;;;1.80;0.95;;;14.00;99.90;;;;;;5028129;28;20074;-71
2021/07/01 05:41:45;;;;;;;1.67;1.15;;;14.00;99.90;;;;;;5025514;28;20136;-70
2021/07/01 05:44:10;;;;;;;0.90;0.75;;;13.90;99.90;;;;;;5027872;28;20122;-71
2021/07/01 05:46:36;;;;;;;1.13;1.02;;;14.00;99.90;;;;;;5029232;28;20552;-72
2021/07/01 05:49:02;;;;;;;1.27;0.85;;;14.00;99.90;;;;;;5029562;28;20080;-70
2021/07/01 05:51:29;;;;;;;1.63;1.02;;;14.00;99.90;;;;;;5000236;28;20148;-70
2021/07/01 05:54:11;;;;;;;1.40;0.90;;;14.00;99.90;;;;;;5025539;28;20069;-72
2021/07/01 05:56:37;;;;;;;2.13;1.70;;;14.10;99.90;;;;;;5028366;28;20172;-70
2021/07/01 05:59:08;;;;;;;1.88;0.82;;;14.00;99.90;;;;;;5029612;28;20149;-69
2021/07/01 06:01:35;;;;;;;0.70;0.70;;;14.00;99.90;;;;;;5023315;28;20097;-70
2021/07/01 06:04:06;;;;;;;0.70;0.60;;;14.00;99.90;;;;;;5011535;28;20070;-70
2021/07/01 06:06:34;;;;;;;3.60;1.08;;;14.00;99.90;;;;;;5011688;28;20075;-71
2021/07/01 06:09:02;;;;;;;1.30;0.85;;;14.10;99.90;;;;;;5009771;28;20063;-71
2021/07/01 06:11:28;;;;;;;1.30;0.90;;;14.10;99.90;;;;;;5022185;28;20078;-71
2021/07/01 06:13:55;;;;;;;1.10;0.60;;;14.10;99.90;;;;;;5028241;28;20081;-72
2021/07/01 06:16:24;;;;;;;3.88;1.92;;;14.20;99.90;;;;;;5028183;28;20564;-70
2021/07/01 06:18:52;;;;;;;1.70;0.85;;;14.10;99.90;;;;;;5008362;28;20082;-70
2021/07/01 06:21:18;;;;;;;1.13;0.63;;;14.20;99.90;;;;;;5008848;28;20105;-71
2021/07/01 06:23:47;;;;;;;0.68;0.63;;;14.20;99.90;;;;;;5009602;28;20830;-70
2021/07/01 06:26:14;;;;;;;1.05;0.70;;;14.20;99.90;;;;;;5009025;28;20469;-70
2021/07/01 06:28:42;;;;;;;1.85;0.88;;;14.10;99.90;;;;;;5019678;28;20479;-70
2021/07/01 06:31:08;;;;;;;1.77;0.80;;;14.10;99.90;;;;;;5019164;28;20090;-70
2021/07/01 06:33:35;;;;;;;1.15;0.80;;;14.00;99.90;;;;;;5024457;28;20085;-74
2021/07/01 06:36:01;;;;;;;1.27;0.80;;;14.00;99.90;;;;;;5028144;28;20069;-73
2021/07/01 06:38:30;;;;;;;1.10;0.90;;;14.00;99.90;;;;;;5028642;28;20070;-76
2021/07/01 06:40:58;;;;;;;1.40;0.90;;;14.10;99.90;;;;;;5028878;28;20584;-71
2021/07/01 06:43:27;;;;;;;0.93;0.80;;;14.10;99.90;;;;;;5020342;28;20078;-75
2021/07/01 06:46:00;;;;;;;1.45;0.95;;;14.20;99.90;;;;;;5010632;28;20098;-71
2021/07/01 06:48:27;;;;;;;1.13;0.80;;;14.20;99.90;;;;;;5028907;28;20465;-71
2021/07/01 06:50:57;;;;;;;1.67;0.93;;;14.20;99.90;;;;;;5028824;28;20078;-71
2021/07/01 06:53:23;;;;;;;1.10;1.00;;;14.10;99.90;;;;;;5003003;28;20088;-71
2021/07/01 06:55:51;;;;;;;1.63;1.17;;;14.10;99.90;;;;;;5027772;28;20074;-71
2021/07/01 06:58:18;;;;;;;1.60;1.20;;;14.30;99.90;;;;;;5023556;28;20090;-70
2021/07/01 07:00:44;;;;;;;1.27;0.90;;;14.30;99.90;;;;;;5017780;28;20569;-72
2021/07/01 07:03:16;;;;;;;1.30;1.00;;;14.20;99.90;;;;;;5025576;28;20177;-72
2021/07/01 07:05:44;;;;;;;1.20;1.00;;;14.30;99.90;;;;;;5018893;28;20074;-72
2021/07/01 07:08:12;;;;;;;1.65;1.52;;;14.40;99.90;;;;;;5015389;28;20113;-73
2021/07/01 07:10:41;;;;;;;2.00;1.10;;;14.40;99.90;;;;;;5017160;28;20131;-71
2021/07/01 07:13:06;;;;;;;1.40;1.00;;;14.40;99.90;;;;;;5019455;28;20104;-72
2021/07/01 07:15:33;;;;;;;2.45;1.20;;;14.50;99.90;;;;;;5021435;28;20534;-71
2021/07/01 07:18:39;;;;;;;1.33;1.13;;;14.50;99.90;;;;;;5023521;28;20169;-71
2021/07/01 07:21:07;;;;;;;2.85;1.38;;;14.60;99.90;;;;;;5017870;28;20117;-74
2021/07/01 07:23:36;;;;;;;1.70;1.20;;;14.60;99.90;;;;;;5022288;28;20066;-71
2021/07/01 07:26:17;;;;;;;2.10;1.08;;;14.60;99.90;;;;;;5021758;28;20070;-71
2021/07/01 07:28:43;;;;;;;1.08;0.82;;;14.60;99.90;;;;;;5022995;28;20216;-71
2021/07/01 07:31:11;;;;;;;1.40;1.02;;;14.60;99.90;;;;;;5022315;28;20118;-70
2021/07/01 07:33:37;;;;;;;3.03;1.20;;;14.60;99.90;;;;;;5022778;28;20153;-71
2021/07/01 07:36:03;;;;;;;1.45;1.05;;;14.50;99.90;;;;;;5024374;28;20082;-72
2021/07/01 07:38:29;;;;;;;2.28;1.17;;;14.50;99.90;;;;;;5024552;28;20089;-71
2021/07/01 07:40:56;;;;;;;1.88;1.20;;;14.50;99.90;;;;;;5022840;28;20089;-72
2021/07/01 07:43:23;;;;;;;1.05;0.88;;;14.40;99.90;;;;;;5025354;28;20081;-71
2021/07/01 07:45:52;;;;;;;2.33;1.08;;;14.40;99.90;;;;;;5020960;28;20200;-71
2021/07/01 07:48:18;;;;;;;1.95;1.25;;;14.40;99.90;;;;;;5023446;28;20108;-72
2021/07/01 07:50:53;;;;;;;1.55;0.98;;;14.40;99.90;;;;;;5022648;28;20074;-72
2021/07/01 07:53:25;;;;;;;1.58;1.25;;;14.50;99.90;;;;;;5021478;28;20085;-75
2021/07/01 07:56:01;;;;;;;1.70;1.10;;;14.50;99.90;;;;;;5021905;28;20232;-70
2021/07/01 07:58:30;;;;;;;1.23;0.93;;;14.50;99.90;;;;;;5023037;28;20394;-71
2021/07/01 08:00:58;;;;;;;1.27;1.00;;;14.50;99.90;;;;;;5024983;28;20086;-70
2021/07/01 08:03:24;;;;;;;1.30;1.00;;;14.60;99.90;;;;;;5002279;28;20089;-71
2021/07/01 08:05:51;;;;;;;1.33;0.90;;;14.50;99.90;;;;;;5025241;28;20093;-73
2021/07/01 08:08:17;;;;;;;1.08;0.80;;;14.40;99.90;;;;;;5025315;28;20082;-72
2021/07/01 08:10:44;;;;;;;2.15;1.15;;;14.50;99.90;;;;;;5025042;28;20113;-72
2021/07/01 08:13:10;;;;;;;1.45;1.00;;;14.50;99.90;;;;;;5024768;28;20141;-73
2021/07/01 08:15:38;;;;;;;0.80;0.80;;;14.50;99.90;;;;;;5023736;28;20086;-72
2021/07/01 08:18:05;;;;;;;0.77;0.60;;;14.50;99.90;;;;;;5025207;28;20143;-71
2021/07/01 08:20:32;;;;;;;1.70;0.70;;;14.50;99.90;;;;;;5028140;28;20090;-70
2021/07/01 08:22:58;;;;;;;0.90;0.80;;;14.50;99.90;;;;;;5007944;28;20706;-70
2021/07/01 08:25:25;;;;;;;0.93;0.73;;;14.50;99.90;;;;;;5026814;28;20074;-71
2021/07/01 08:27:53;;;;;;;0.95;0.73;;;14.50;99.90;;;;;;5026455;28;20070;-71
2021/07/01 08:30:22;;;;;;;0.85;0.60;;;14.50;99.90;;;;;;5004950;28;20097;-71
2021/07/01 08:32:52;;;;;;;2.35;0.60;;;14.60;99.90;;;;;;5023461;28;20148;-73
2021/07/01 08:35:21;;;;;;;3.33;0.98;;;14.50;99.90;;;;;;5025189;28;20700;-70
2021/07/01 08:37:50;;;;;;;1.67;0.85;;;14.50;99.90;;;;;;5024541;28;20077;-74
2021/07/01 08:40:18;;;;;;;2.45;0.70;;;14.50;99.90;;;;;;5021276;28;20101;-71
2021/07/01 08:42:44;;;;;;;2.78;1.02;;;14.60;99.90;;;;;;5025008;28;20648;-70
2021/07/01 08:45:13;;;;;;;1.48;0.65;;;14.60;99.90;;;;;;5025683;28;20104;-70
2021/07/01 08:47:41;;;;;;;2.10;0.90;;;14.70;99.90;;;;;;5023765;28;20073;-72
2021/07/01 08:50:16;;;;;;;1.25;0.70;;;14.70;99.90;;;;;;5026874;28;20518;-72
2021/07/01 08:53:04;;;;;;;1.45;1.20;;;14.60;99.90;;;;;;5023324;28;20094;-72
2021/07/01 08:55:31;;;;;;;1.77;0.85;;;14.60;99.90;;;;;;5007059;28;20128;-71
2021/07/01 08:57:59;;;;;;;1.17;0.60;;;14.60;99.90;;;;;;5026017;28;20097;-73
2021/07/01 09:00:26;;;;;;;1.95;0.50;;;14.60;99.90;;;;;;5025724;28;20520;-70
2021/07/01 09:03:04;;;;;;;0.77;0.60;;;14.60;99.90;;;;;;5011804;28;20101;-72
2021/07/01 09:05:32;;;;;;;0.85;0.70;;;14.60;99.90;;;;;;5026485;28;20077;-70
2021/07/01 09:08:00;;;;;;;1.35;0.63;;;14.70;99.90;;;;;;5022489;28;20145;-71
2021/07/01 09:10:28;;;;;;;0.98;0.68;;;14.80;99.90;;;;;;5014454;28;20164;-71
2021/07/01 09:12:56;;;;;;;0.80;0.68;;;14.70;99.90;;;;;;5023060;28;20185;-71
2021/07/01 09:15:22;;;;;;;0.82;0.50;;;14.70;99.90;;;;;;5025537;28;20080;-71
2021/07/01 09:17:49;;;;;;;1.08;0.60;;;14.70;99.90;;;;;;5029376;28;20073;-71
2021/07/01 09:20:33;;;;;;;0.80;0.65;;;14.80;99.90;;;;;;5027118;28;20093;-70
2021/07/01 09:22:58;;;;;;;1.38;1.00;;;14.90;99.90;;;;;;5017244;28;20114;-70
2021/07/01 09:25:24;;;;;;;0.80;0.50;;;14.80;99.90;;;;;;5023700;28;20109;-74
2021/07/01 09:27:52;;;;;;;1.55;0.70;;;14.80;99.90;;;;;;5007531;28;20161;-71
2021/07/01 09:30:24;;;;;;;3.05;0.73;;;14.80;99.90;;;;;;5027072;28;20153;-72
2021/07/01 09:32:54;;;;;;;2.50;1.55;;;14.80;99.90;;;;;;4990559;28;20554;-71
2021/07/01 09:35:22;;;;;;;1.92;1.10;;;14.90;99.90;;;;;;4991796;28;20112;-71
2021/07/01 09:37:47;;;;;;;1.55;0.80;;;15.10;99.90;;;;;;5016857;28;20078;-73
2021/07/01 09:40:15;;;;;;;2.65;1.60;;;15.30;99.90;;;;;;5013922;28;20101;-71
2021/07/01 09:42:41;;;;;;;1.40;0.73;;;15.50;99.90;;;;;;4995747;28;20481;-71
2021/07/01 09:45:12;;;;;;;1.88;1.27;;;15.60;99.90;;;;;;5028059;28;20101;-70
2021/07/01 09:47:42;;;;;;;1.20;1.00;;;15.70;99.90;;;;;;5027139;28;20100;-71
2021/07/01 09:50:09;;;;;;;1.92;1.00;;;15.80;99.90;;;;;;5029084;28;20074;-73
2021/07/01 09:52:39;;;;;;;2.17;1.00;;;15.90;99.90;;;;;;5029018;28;20113;-72
2021/07/01 09:55:06;;;;;;;0.82;0.70;;;16.10;99.90;;;;;;5016428;28;20090;-73
2021/07/01 09:57:36;;;;;;;1.40;0.80;;;16.00;99.90;;;;;;5009284;28;20082;-72
2021/07/01 10:00:05;;;;;;;0.95;0.70;;;16.00;99.90;;;;;;5023540;28;20124;-73
2021/07/01 10:02:30;;;;;;;1.20;0.82;;;15.80;99.90;;;;;;5029192;28;20089;-71
2021/07/01 10:04:57;;;;;;;1.60;1.08;;;15.80;99.90;;;;;;5018324;28;20078;-73
2021/07/01 10:07:25;;;;;;;1.17;0.95;;;15.90;99.90;;;;;;4991313;28;20074;-72
2021/07/01 10:09:56;;;;;;;0.98;0.75;;;15.90;99.90;;;;;;5009930;28;20070;-72
2021/07/01 10:12:27;;;;;;;1.95;0.93;;;15.90;99.90;;;;;;5010728;28;20094;-71
2021/07/01 10:14:58;;;;;;;3.97;1.20;;;15.90;99.90;;;;;;5028612;28;20070;-72
2021/07/01 10:17:25;;;;;;;1.55;1.10;;;15.90;99.90;;;;;;5008267;28;20128;-72
2021/07/01 10:20:08;;;;;;;2.00;1.02;;;15.90;99.90;;;;;;5028397;28;20066;-74
2021/07/01 10:22:42;;;;;;;1.02;0.80;;;15.90;99.90;;;;;;5028218;28;20108;-72
2021/07/01 10:25:09;;;;;;;1.13;1.02;;;15.90;99.90;;;;;;5027989;28;20077;-72
2021/07/01 10:27:41;;;;;;;1.45;1.00;;;15.80;99.90;;;;;;5024743;28;20077;-72
2021/07/01 10:30:16;;;;;;;1.48;1.20;;;15.90;99.90;;;;;;5020420;28;20192;-72
2021/07/01 10:32:45;;;;;;;2.17;1.30;;;15.80;99.90;;;;;;5028161;28;20616;-72
2021/07/01 10:35:32;;;;;;;3.03;1.33;;;15.80;99.90;;;;;;5010724;28;20077;-72
2021/07/01 10:38:07;;;;;;;1.95;1.27;;;15.80;99.90;;;;;;5008659;28;20066;-72
2021/07/01 10:40:49;;;;;;;2.17;1.23;;;15.90;99.90;;;;;;5009376;28;20461;-72
2021/07/01 10:43:17;;;;;;;3.03;1.58;;;16.00;99.90;;;;;;5017392;28;20090;-72
2021/07/01 10:45:56;;;;;;;2.40;1.38;;;16.20;99.90;;;;;;5027422;28;20077;-72
2021/07/01 10:48:23;;;;;;;1.42;1.23;;;16.30;99.90;;;;;;5010826;28;20082;-72
2021/07/01 10:50:50;;;;;;;2.25;1.50;;;16.50;99.90;;;;;;5010955;28;20474;-72
2021/07/01 10:53:26;;;;;;;1.90;1.60;;;16.90;99.90;;;;;;5010428;28;20100;-72
2021/07/01 10:55:53;;;;;;;2.13;1.30;;;16.90;99.90;;;;;;5011476;28;20073;-72
2021/07/01 10:58:19;;;;;;;1.85;1.70;;;16.80;99.90;;;;;;4991738;28;20074;-72
2021/07/01 11:00:45;;;;;;;5.20;1.35;;;16.80;99.90;;;;;;5008894;28;20609;-72
2021/07/01 11:03:19;;;;;;;1.67;1.42;;;16.80;99.90;;;;;;5008430;28;20082;-72
2021/07/01 11:05:45;;;;;;;2.58;2.22;;;16.80;99.90;;;;;;4995071;28;20081;-72
2021/07/01 11:08:26;;;;;;;1.90;1.30;;;16.80;99.90;;;;;;5017486;28;20534;-72
2021/07/01 11:10:53;;;;;;;3.30;1.33;;;16.70;99.90;;;;;;5011042;28;20074;-72
2021/07/01 11:13:19;;;;;;;1.60;1.33;;;16.70;99.90;;;;;;5019362;28;20196;-71
2021/07/01 11:16:04;;;;;;;2.42;1.50;;;16.60;99.90;;;;;;5026338;28;20074;-72
2021/07/01 11:18:36;;;;;;;2.10;1.50;;;16.50;99.90;;;;;;5026923;28;20074;-72
2021/07/01 11:21:14;;;;;;;1.33;1.23;;;16.40;99.90;;;;;;5005233;28;20610;-72
2021/07/01 11:23:42;;;;;;;2.33;1.55;;;16.40;99.90;;;;;;5020300;28;20074;-71
2021/07/01 11:26:28;;;;;;;1.90;1.45;;;16.50;99.90;;;;;;5016858;28;20085;-71
2021/07/01 11:28:54;;;;;;;2.85;1.60;;;16.50;99.90;;;;;;5016866;28;20072;-71
2021/07/01 11:31:36;;;;;;;2.85;1.58;;;16.40;99.90;;;;;;5017287;28;20093;-71
2021/07/01 11:34:02;;;;;;;2.05;1.70;;;16.30;99.90;;;;;;5005537;28;20506;-71
2021/07/01 11:36:29;;;;;;;2.28;1.77;;;16.30;99.90;;;;;;5025394;28;20085;-71
2021/07/01 11:39:06;;;;;;;2.53;1.63;;;16.10;99.90;;;;;;5027755;28;20070;-72
2021/07/01 11:41:32;;;;;;;1.70;1.45;;;16.10;99.90;;;;;;5012934;28;20112;-72
2021/07/01 11:43:59;;;;;;;2.13;1.40;;;16.30;99.90;;;;;;5030936;28;20085;-72
2021/07/01 11:46:25;;;;;;;3.03;1.27;;;16.50;99.90;;;;;;5030502;28;20098;-72
2021/07/01 11:48:53;;;;;;;2.95;1.13;;;16.60;99.90;;;;;;5031858;28;20283;-72
2021/07/01 11:51:21;;;;;;;1.27;1.10;;;16.90;99.90;;;;;;5031709;28;20105;-72
2021/07/01 11:53:48;;;;;;;1.70;0.90;;;17.20;99.90;;;;;;5031104;28;20066;-71
2021/07/01 11:56:13;;;;;;;1.90;0.93;;;17.20;99.90;;;;;;5012631;28;20560;-72
2021/07/01 11:58:41;;;;;;;2.85;0.90;;;17.30;99.90;;;;;;5031153;28;20074;-72
2021/07/01 12:01:07;;;;;;;1.33;1.13;;;17.40;99.90;;;;;;5031229;28;20106;-72
2021/07/01 12:03:34;;;;;;;1.55;1.17;;;17.40;99.90;;;;;;5031360;28;20062;-72
2021/07/01 12:06:00;;;;;;;1.42;1.23;;;17.50;99.90;;;;;;5029748;28;20153;-72
2021/07/01 12:08:27;;;;;;;3.67;1.23;;;17.50;99.90;;;;;;5030628;28;20561;-72
2021/07/01 12:11:04;;;;;;;1.13;1.00;;;17.50;99.90;;;;;;5030719;28;20069;-72
2021/07/01 12:13:33;;;;;;;1.48;1.00;;;17.30;99.90;;;;;;5012570;28;20124;-73
2021/07/01 12:16:07;;;;;;;1.52;1.08;;;17.30;99.90;;;;;;5029834;28;20497;-74
2021/07/01 12:18:45;;;;;;;2.20;1.38;;;17.40;99.90;;;;;;5030812;28;20074;-72
2021/07/01 12:21:11;;;;;;;1.48;1.13;;;17.40;99.90;;;;;;5028297;28;20536;-73
2021/07/01 12:23:53;;;;;;;1.60;1.30;;;17.40;99.90;;;;;;5011163;28;20152;-73
2021/07/01 12:26:44;;;;;;;2.08;1.08;;;17.40;99.90;;;;;;5027913;28;20077;-72
2021/07/01 12:29:47;;;;;;;3.38;1.15;;;17.30;99.90;;;;;;5023108;28;20078;-73
2021/07/01 12:32:23;;;;;;;1.40;1.10;;;17.30;99.90;;;;;;5030541;28;20512;-72
2021/07/01 12:34:50;;;;;;;2.33;1.20;;;17.20;99.90;;;;;;5030584;28;20453;-72
2021/07/01 12:37:15;;;;;;;1.50;0.93;;;17.20;99.90;;;;;;5029844;28;20153;-72
2021/07/01 12:39:42;;;;;;;1.45;1.08;;;17.20;99.90;;;;;;5030439;28;20088;-72
2021/07/01 12:42:07;;;;;;;1.42;0.85;;;17.10;99.90;;;;;;5030664;28;20724;-72
2021/07/01 12:44:44;;;;;;;1.38;1.23;;;17.10;99.90;;;;;;5029760;28;20089;-72
2021/07/01 12:47:29;;;;;;;1.38;1.20;;;17.10;99.90;;;;;;5004115;28;20077;-72
2021/07/01 12:50:00;;;;;;;2.38;1.63;;;17.10;99.90;;;;;;5027639;28;20093;-72
2021/07/01 12:52:34;;;;;;;1.85;1.20;;;17.20;99.90;;;;;;5030140;28;20089;-72